createdAt,value
2018-11-07T00:00:23.469Z,5.20
2018-11-07T00:02:51.683Z,4.87
2018-11-07T00:05:20.328Z,4.93
2018-11-07T00:07:49.183Z,4.30
2018-11-07T00:10:17.203Z,5.30
2018-11-07T00:12:45.407Z,6.50
2018-11-07T00:15:14.717Z,5.10
2018-11-07T00:17:43.287Z,5.10
2018-11-07T00:20:12.301Z,4.60
2018-11-07T00:22:40.600Z,5.27
2018-11-07T00:25:09.878Z,5.73
2018-11-07T00:27:38.112Z,4.20
2018-11-07T00:30:06.818Z,4.65
2018-11-07T00:32:34.834Z,4.97
2018-11-07T00:35:02.969Z,4.67
2018-11-07T00:37:32.106Z,5.33
2018-11-07T00:40:00.193Z,4.97
2018-11-07T00:42:28.688Z,4.90
2018-11-07T00:44:56.733Z,5.60
2018-11-07T00:47:24.934Z,5.10
2018-11-07T00:49:53.002Z,4.63
2018-11-07T00:52:21.093Z,5.10
2018-11-07T00:54:49.250Z,4.40
2018-11-07T00:57:17.382Z,4.60
2018-11-07T00:59:45.479Z,4.23
2018-11-07T01:02:13.594Z,4.33
2018-11-07T01:04:41.693Z,4.73
2018-11-07T01:07:09.767Z,4.22
2018-11-07T01:09:37.914Z,4.40
2018-11-07T01:12:05.985Z,4.90
2018-11-07T01:14:34.093Z,4.43
2018-11-07T01:17:02.198Z,4.73
2018-11-07T01:19:30.286Z,4.10
2018-11-07T01:21:58.351Z,4.17
2018-11-07T01:24:26.483Z,4.13
2018-11-07T01:26:55.341Z,4.80
2018-11-07T01:29:23.405Z,4.77
2018-11-07T01:31:51.481Z,4.30
2018-11-07T01:34:19.567Z,4.50
2018-11-07T01:36:47.648Z,5.10
2018-11-07T01:39:15.703Z,4.30
2018-11-07T01:41:43.833Z,4.23
2018-11-07T01:44:11.869Z,5.13
2018-11-07T01:46:40.070Z,4.53
2018-11-07T01:49:08.182Z,3.97
2018-11-07T01:51:36.236Z,4.30
2018-11-07T01:54:04.306Z,4.10
2018-11-07T01:56:32.368Z,4.17
2018-11-07T01:59:00.444Z,4.63
2018-11-07T02:01:28.628Z,4.20
2018-11-07T02:03:57.478Z,4.42
2018-11-07T02:06:25.546Z,4.30
2018-11-07T02:08:53.702Z,4.20
2018-11-07T02:11:21.793Z,4.70
2018-11-07T02:13:49.848Z,4.30
2018-11-07T02:16:18.023Z,4.23
2018-11-07T02:18:46.112Z,4.23
2018-11-07T02:21:14.194Z,4.30
2018-11-07T02:23:42.250Z,4.30
2018-11-07T02:26:10.448Z,3.90
2018-11-07T02:28:38.515Z,4.40
2018-11-07T02:31:06.666Z,3.63
2018-11-07T02:33:34.729Z,4.57
2018-11-07T02:36:02.890Z,7.43
2018-11-07T02:38:31.054Z,4.33
2018-11-07T02:40:59.154Z,4.00
2018-11-07T02:43:27.379Z,4.37
2018-11-07T02:45:55.482Z,4.50
2018-11-07T02:48:23.610Z,4.40
2018-11-07T02:50:51.705Z,4.17
2018-11-07T02:53:19.948Z,5.87
2018-11-07T02:55:47.989Z,5.33
2018-11-07T02:58:16.090Z,8.27
2018-11-07T03:00:44.289Z,6.92
2018-11-07T03:03:12.419Z,6.97
2018-11-07T03:05:40.523Z,3.90
2018-11-07T03:08:08.693Z,3.50
2018-11-07T03:10:36.957Z,4.55
2018-11-07T03:13:05.012Z,3.90
2018-11-07T03:15:33.225Z,3.87
2018-11-07T03:18:01.354Z,3.67
2018-11-07T03:20:29.455Z,4.33
2018-11-07T03:22:57.733Z,4.03
2018-11-07T03:25:25.886Z,3.47
2018-11-07T03:27:54.110Z,3.90
2018-11-07T03:30:22.229Z,3.67
2018-11-07T03:32:50.326Z,3.63
2018-11-07T03:35:23.662Z,3.83
2018-11-07T03:37:51.888Z,4.30
2018-11-07T03:40:19.981Z,4.30
2018-11-07T03:42:48.130Z,4.30
2018-11-07T03:45:16.217Z,4.30
2018-11-07T03:47:44.410Z,4.70
2018-11-07T03:50:12.630Z,4.50
2018-11-07T03:52:40.970Z,4.03
2018-11-07T03:55:09.121Z,3.87
2018-11-07T03:57:37.534Z,4.20
2018-11-07T04:00:07.381Z,3.95
2018-11-07T04:02:36.110Z,4.10
2018-11-07T04:05:04.697Z,4.20
2018-11-07T04:07:32.803Z,4.33
2018-11-07T04:10:00.889Z,4.17
2018-11-07T04:12:28.997Z,4.83
2018-11-07T04:14:57.129Z,4.20
2018-11-07T04:17:25.384Z,4.80
2018-11-07T04:19:53.477Z,4.00
2018-11-07T04:22:21.606Z,3.53
2018-11-07T04:24:49.730Z,4.00
2018-11-07T04:27:17.847Z,4.22
2018-11-07T04:29:45.927Z,3.43
2018-11-07T04:32:14.022Z,2.90
2018-11-07T04:34:42.218Z,4.83
2018-11-07T04:37:10.332Z,3.73
2018-11-07T04:39:38.430Z,4.47
2018-11-07T04:42:06.566Z,3.80
2018-11-07T04:44:34.666Z,4.03
2018-11-07T04:47:02.785Z,4.33
2018-11-07T04:49:30.880Z,3.27
2018-11-07T04:51:59.031Z,4.10
2018-11-07T04:54:27.124Z,3.50
2018-11-07T04:56:55.266Z,3.50
2018-11-07T04:59:23.455Z,3.83
2018-11-07T05:01:51.659Z,3.90
2018-11-07T05:04:19.846Z,3.40
2018-11-07T05:06:48.031Z,3.83
2018-11-07T05:09:16.332Z,4.08
2018-11-07T05:11:44.514Z,3.73
2018-11-07T05:14:12.645Z,3.80
2018-11-07T05:16:40.836Z,3.43
2018-11-07T05:19:08.982Z,3.60
2018-11-07T05:21:37.131Z,3.30
2018-11-07T05:24:05.664Z,3.80
2018-11-07T05:26:33.777Z,3.70
2018-11-07T05:29:01.879Z,2.98
2018-11-07T05:31:30.013Z,3.23
2018-11-07T05:33:58.249Z,4.73
2018-11-07T05:36:26.337Z,3.62
2018-11-07T05:38:54.455Z,3.60
2018-11-07T05:41:22.693Z,3.90
2018-11-07T05:43:50.779Z,3.50
2018-11-07T05:46:18.927Z,3.83
2018-11-07T05:48:47.076Z,3.97
2018-11-07T05:51:15.249Z,3.40
2018-11-07T05:53:43.370Z,3.20
2018-11-07T05:56:11.449Z,3.57
2018-11-07T05:58:39.546Z,3.80
2018-11-07T06:01:07.652Z,3.07
2018-11-07T06:03:35.760Z,3.13
2018-11-07T06:06:03.852Z,3.37
2018-11-07T06:08:31.995Z,4.23
2018-11-07T06:11:00.106Z,3.83
2018-11-07T06:13:28.219Z,2.97
2018-11-07T06:15:56.348Z,3.53
2018-11-07T06:18:24.442Z,3.60
2018-11-07T06:20:52.593Z,3.15
2018-11-07T06:23:20.695Z,3.90
2018-11-07T06:25:48.805Z,3.73
2018-11-07T06:28:16.988Z,2.80
2018-11-07T06:30:45.834Z,3.33
2018-11-07T06:33:14.113Z,4.33
2018-11-07T06:35:42.252Z,3.33
2018-11-07T06:38:10.418Z,3.23
2018-11-07T06:40:38.561Z,3.60
2018-11-07T06:43:06.672Z,3.77
2018-11-07T06:45:34.770Z,3.62
2018-11-07T06:48:02.899Z,3.47
2018-11-07T06:50:31.030Z,3.15
2018-11-07T06:52:59.197Z,2.87
2018-11-07T06:55:27.333Z,3.20
2018-11-07T06:57:55.500Z,3.20
2018-11-07T07:00:23.668Z,3.27
2018-11-07T07:02:51.765Z,3.47
2018-11-07T07:05:19.864Z,3.43
2018-11-07T07:07:48.241Z,3.23
2018-11-07T07:10:17.529Z,3.10
2018-11-07T07:12:45.614Z,2.73
2018-11-07T07:15:14.897Z,2.90
2018-11-07T07:17:43.017Z,3.47
2018-11-07T07:20:15.485Z,3.00
2018-11-07T07:22:44.131Z,2.70
2018-11-07T07:25:13.029Z,3.40
2018-11-07T07:27:41.801Z,2.87
2018-11-07T07:30:13.115Z,2.73
2018-11-07T07:32:42.041Z,3.57
2018-11-07T07:35:10.148Z,3.70
2018-11-07T07:37:38.278Z,3.27
2018-11-07T07:40:08.642Z,4.20
2018-11-07T07:42:36.982Z,2.93
2018-11-07T07:45:06.717Z,2.65
2018-11-07T07:47:34.827Z,2.93
2018-11-07T07:50:02.995Z,2.70
2018-11-07T07:52:31.058Z,3.10
2018-11-07T07:54:59.288Z,3.00
2018-11-07T07:57:27.438Z,3.40
2018-11-07T07:59:55.553Z,2.90
2018-11-07T08:02:23.695Z,2.30
2018-11-07T08:04:52.391Z,3.67
2018-11-07T08:07:20.562Z,3.30
2018-11-07T08:09:48.716Z,2.83
2018-11-07T08:12:16.831Z,2.63
2018-11-07T08:14:44.970Z,2.37
2018-11-07T08:17:13.129Z,3.10
2018-11-07T08:19:41.246Z,2.53
2018-11-07T08:22:09.333Z,2.40
2018-11-07T08:24:37.431Z,2.20
2018-11-07T08:27:05.639Z,2.53
2018-11-07T08:29:33.794Z,2.80
2018-11-07T08:32:01.951Z,2.33
2018-11-07T08:34:30.137Z,2.63
2018-11-07T08:36:58.242Z,2.60
2018-11-07T08:39:26.347Z,2.67
2018-11-07T08:41:54.450Z,2.97
2018-11-07T08:44:22.550Z,2.30
2018-11-07T08:46:50.646Z,2.60
2018-11-07T08:49:18.795Z,2.60
2018-11-07T08:51:46.930Z,2.00
2018-11-07T08:54:15.046Z,1.90
2018-11-07T08:56:43.162Z,2.30
2018-11-07T08:59:11.258Z,2.30
2018-11-07T09:01:39.392Z,2.30
2018-11-07T09:04:07.476Z,2.53
2018-11-07T09:06:35.614Z,2.80
2018-11-07T09:09:03.772Z,2.77
2018-11-07T09:11:31.901Z,2.67
2018-11-07T09:14:00.079Z,2.97
2018-11-07T09:16:28.285Z,2.40
2018-11-07T09:18:56.400Z,2.50
2018-11-07T09:21:24.505Z,2.57
2018-11-07T09:23:52.624Z,2.40
2018-11-07T09:26:21.496Z,2.30
2018-11-07T09:28:50.393Z,2.43
2018-11-07T09:31:18.487Z,2.50
2018-11-07T09:33:46.599Z,2.77
2018-11-07T09:36:14.705Z,2.43
2018-11-07T09:38:42.787Z,2.47
2018-11-07T09:41:10.889Z,2.83
2018-11-07T09:43:39.014Z,2.50
2018-11-07T09:46:07.154Z,2.10
2018-11-07T09:48:35.246Z,2.40
2018-11-07T09:51:03.344Z,1.83
2018-11-07T09:53:31.428Z,2.67
2018-11-07T09:58:06.964Z,1.77
2018-11-07T10:00:35.063Z,2.45
2018-11-07T10:03:03.225Z,3.23
2018-11-07T10:05:31.416Z,2.37
2018-11-07T10:07:59.468Z,3.40
2018-11-07T10:10:27.586Z,2.20
2018-11-07T10:12:55.684Z,2.40
2018-11-07T10:15:23.827Z,2.30
2018-11-07T10:17:51.930Z,2.10
2018-11-07T10:20:22.529Z,2.43
2018-11-07T10:22:50.890Z,2.10
2018-11-07T10:25:19.187Z,1.87
2018-11-07T10:27:47.532Z,2.35
2018-11-07T10:30:16.929Z,1.93
2018-11-07T10:32:45.850Z,2.03
2018-11-07T10:35:13.982Z,2.43
2018-11-07T10:37:42.133Z,2.10
2018-11-07T10:40:12.431Z,1.95
2018-11-07T10:42:40.571Z,1.93
2018-11-07T10:45:09.082Z,2.90
2018-11-07T10:47:37.204Z,2.00
2018-11-07T10:50:06.530Z,2.83
2018-11-07T10:52:34.615Z,1.43
2018-11-07T10:55:03.422Z,2.10
2018-11-07T10:57:31.664Z,2.57
2018-11-07T10:59:59.785Z,2.10
2018-11-07T11:02:33.230Z,1.97
2018-11-07T11:05:01.374Z,2.10
2018-11-07T11:07:29.550Z,2.63
2018-11-07T11:09:57.676Z,2.03
2018-11-07T11:12:25.801Z,1.83
2018-11-07T11:14:53.958Z,2.20
2018-11-07T11:17:22.091Z,1.90
2018-11-07T11:19:50.183Z,1.83
2018-11-07T11:22:18.291Z,1.90
2018-11-07T11:24:46.430Z,1.70
2018-11-07T11:27:14.565Z,1.60
2018-11-07T11:29:42.744Z,1.83
2018-11-07T11:32:10.893Z,2.10
2018-11-07T11:34:39.073Z,1.90
2018-11-07T11:37:07.201Z,2.03
2018-11-07T11:39:35.285Z,2.23
2018-11-07T11:42:03.493Z,2.10
2018-11-07T11:44:31.584Z,1.47
2018-11-07T11:46:59.687Z,1.33
2018-11-07T11:49:27.867Z,1.73
2018-11-07T11:51:55.966Z,1.30
2018-11-07T11:54:24.173Z,1.53
2018-11-07T11:56:52.282Z,1.67
2018-11-07T11:59:20.654Z,1.60
2018-11-07T12:01:48.489Z,1.70
2018-11-07T12:04:16.606Z,1.97
2018-11-07T12:06:44.689Z,1.67
2018-11-07T12:09:12.827Z,1.83
2018-11-07T12:11:41.002Z,1.80
2018-11-07T12:14:10.054Z,1.70
2018-11-07T12:16:38.179Z,1.43
2018-11-07T12:19:06.374Z,1.47
2018-11-07T12:21:34.462Z,1.73
2018-11-07T12:24:02.600Z,1.70
2018-11-07T12:26:30.754Z,1.40
2018-11-07T12:28:58.871Z,2.07
2018-11-07T12:31:26.959Z,1.90
2018-11-07T12:33:55.054Z,2.67
2018-11-07T12:36:23.209Z,2.05
2018-11-07T12:38:51.282Z,2.17
2018-11-07T12:41:19.380Z,2.77
2018-11-07T12:43:47.503Z,2.90
2018-11-07T12:46:15.594Z,2.63
2018-11-07T12:48:43.775Z,2.30
2018-11-07T12:51:12.914Z,2.80
2018-11-07T12:53:41.106Z,2.80
2018-11-07T12:56:09.202Z,2.50
2018-11-07T12:58:37.346Z,2.60
2018-11-07T13:01:05.629Z,2.70
2018-11-07T13:03:33.834Z,3.80
2018-11-07T13:06:01.946Z,3.97
2018-11-07T13:08:30.079Z,3.65
2018-11-07T13:10:58.177Z,3.23
2018-11-07T13:13:26.281Z,3.40
2018-11-07T13:15:54.375Z,2.70
2018-11-07T13:18:22.493Z,2.67
2018-11-07T13:20:50.606Z,3.23
2018-11-07T13:23:18.726Z,3.67
2018-11-07T13:25:46.825Z,2.83
2018-11-07T13:28:15.358Z,3.07
2018-11-07T13:30:43.439Z,3.10
2018-11-07T13:33:11.553Z,3.00
2018-11-07T13:35:39.784Z,2.60
2018-11-07T13:38:08.207Z,3.07
2018-11-07T13:40:36.131Z,2.93
2018-11-07T13:43:04.265Z,3.72
2018-11-07T13:45:32.447Z,3.03
2018-11-07T13:48:00.546Z,2.60
2018-11-07T13:50:28.633Z,2.87
2018-11-07T13:52:56.808Z,2.93
2018-11-07T13:55:24.886Z,2.97
2018-11-07T13:57:53.246Z,2.83
2018-11-07T14:00:22.447Z,2.60
2018-11-07T14:02:51.246Z,2.40
2018-11-07T14:05:19.410Z,3.20
2018-11-07T14:07:48.035Z,2.30
2018-11-07T14:10:21.282Z,2.80
2018-11-07T14:12:49.630Z,2.60
2018-11-07T14:15:18.660Z,2.20
2018-11-07T14:17:46.841Z,2.23
2018-11-07T14:20:14.969Z,2.10
2018-11-07T14:22:43.169Z,2.27
2018-11-07T14:25:11.823Z,2.40
2018-11-07T14:27:40.322Z,2.70
2018-11-07T14:30:11.270Z,2.07
2018-11-07T14:32:41.126Z,2.13
2018-11-07T14:35:09.215Z,2.23
2018-11-07T14:37:37.344Z,2.37
2018-11-07T14:40:05.831Z,2.10
2018-11-07T14:42:33.955Z,2.77
2018-11-07T14:45:02.063Z,2.55
2018-11-07T14:47:30.183Z,2.55
2018-11-07T14:49:58.285Z,1.73
2018-11-07T14:52:26.377Z,1.75
2018-11-07T14:54:54.458Z,2.37
2018-11-07T14:57:22.582Z,1.90
2018-11-07T15:04:54.282Z,2.33
2018-11-07T15:07:22.440Z,2.07
2018-11-07T15:09:50.665Z,1.77
2018-11-07T15:12:18.754Z,1.93
2018-11-07T15:14:46.862Z,2.03
2018-11-07T15:17:14.948Z,1.97
2018-11-07T15:19:43.070Z,1.60
2018-11-07T15:22:11.205Z,1.87
2018-11-07T15:24:39.330Z,2.07
2018-11-07T15:27:07.773Z,2.05
2018-11-07T15:29:35.905Z,2.10
2018-11-07T15:32:05.909Z,1.72
2018-11-07T15:34:34.010Z,1.45
2018-11-07T15:37:02.166Z,1.83
2018-11-07T15:39:30.268Z,1.90
2018-11-07T15:41:58.387Z,1.77
2018-11-07T15:44:26.612Z,1.50
2018-11-07T15:48:09.811Z,1.83
2018-11-07T15:50:43.377Z,1.90
2018-11-07T15:53:11.519Z,2.72
2018-11-07T15:55:39.649Z,1.47
2018-11-07T15:58:07.953Z,1.93
2018-11-07T16:00:36.059Z,1.70
2018-11-07T16:03:04.562Z,1.60
2018-11-07T16:05:32.746Z,1.98
2018-11-07T16:08:05.749Z,1.40
2018-11-07T16:10:33.950Z,2.33
2018-11-07T16:13:02.145Z,2.00
2018-11-07T16:15:31.400Z,2.00
2018-11-07T16:17:59.569Z,2.33
2018-11-07T16:20:27.776Z,2.10
2018-11-07T16:22:55.956Z,2.20
2018-11-07T16:25:24.010Z,1.77
2018-11-07T16:27:52.077Z,1.97
2018-11-07T16:30:20.801Z,1.77
2018-11-07T16:32:48.918Z,14.00
2018-11-07T16:35:17.089Z,165.87
2018-11-07T16:37:44.467Z,233.50
2018-11-07T16:40:12.888Z,274.80
2018-11-07T16:42:41.903Z,297.13
2018-11-07T16:45:09.836Z,234.55
2018-11-07T16:47:38.021Z,334.07
2018-11-07T16:50:07.135Z,345.57
2018-11-07T16:52:35.295Z,307.20
2018-11-07T16:55:03.390Z,272.15
2018-11-07T16:57:31.568Z,397.37
2018-11-07T17:00:00.206Z,570.73
2018-11-07T17:02:28.339Z,490.50
2018-11-07T17:04:56.527Z,516.50
2018-11-07T17:07:24.690Z,516.77
2018-11-07T17:09:52.819Z,497.50
2018-11-07T17:12:20.961Z,465.90
2018-11-07T17:14:49.081Z,409.60
2018-11-07T17:17:17.250Z,384.05
2018-11-07T17:19:45.526Z,369.90
2018-11-07T17:22:13.637Z,357.07
2018-11-07T17:24:41.789Z,341.63
2018-11-07T17:27:09.864Z,346.83
2018-11-07T17:29:37.964Z,339.93
2018-11-07T17:32:06.121Z,351.58
2018-11-07T17:34:34.359Z,327.33
2018-11-07T17:37:02.597Z,319.57
2018-11-07T17:39:30.700Z,309.03
2018-11-07T17:41:58.816Z,299.23
2018-11-07T17:44:26.946Z,279.47
2018-11-07T17:46:55.066Z,275.90
2018-11-07T17:49:23.192Z,264.17
2018-11-07T17:51:51.370Z,254.00
2018-11-07T17:54:19.513Z,247.13
2018-11-07T17:56:47.661Z,238.15
2018-11-07T17:59:15.815Z,230.67
2018-11-07T18:01:43.944Z,213.23
2018-11-07T18:04:12.541Z,211.30
2018-11-07T18:06:40.684Z,210.47
2018-11-07T18:09:09.295Z,199.53
2018-11-07T18:11:37.666Z,193.57
2018-11-07T18:14:06.257Z,187.10
2018-11-07T18:16:34.974Z,186.07
2018-11-07T18:19:03.266Z,177.87
2018-11-07T18:21:31.328Z,169.80
2018-11-07T18:23:59.541Z,168.50
2018-11-07T18:26:27.721Z,163.47
2018-11-07T18:28:55.824Z,166.03
2018-11-07T18:31:23.986Z,151.23
2018-11-07T18:33:52.098Z,157.10
2018-11-07T18:36:20.243Z,155.37
2018-11-07T18:38:48.448Z,154.90
2018-11-07T18:41:16.551Z,154.85
2018-11-07T18:43:45.150Z,152.17
2018-11-07T18:46:13.288Z,148.50
2018-11-07T18:48:41.483Z,149.87
2018-11-07T18:51:09.635Z,150.83
2018-11-07T18:53:37.817Z,152.70
2018-11-07T18:56:06.114Z,146.07
2018-11-07T18:58:34.373Z,146.97
2018-11-07T19:01:02.474Z,144.80
2018-11-07T19:03:30.618Z,148.00
2018-11-07T19:05:58.754Z,146.93
2018-11-07T19:08:27.006Z,142.10
2018-11-07T19:10:55.178Z,147.65
2018-11-07T19:13:23.334Z,142.73
2018-11-07T19:15:51.521Z,141.97
2018-11-07T19:18:19.747Z,138.87
2018-11-07T19:20:47.901Z,140.37
2018-11-07T19:23:16.068Z,130.65
2018-11-07T19:25:44.284Z,127.23
2018-11-07T19:28:12.409Z,122.87
2018-11-07T19:30:40.639Z,123.20
2018-11-07T19:33:09.544Z,118.17
2018-11-07T19:35:37.726Z,115.00
2018-11-07T19:38:05.837Z,110.47
2018-11-07T19:40:33.938Z,108.17
2018-11-07T19:43:02.167Z,106.83
2018-11-07T19:45:30.306Z,105.07
2018-11-07T19:47:58.445Z,94.57
2018-11-07T19:50:26.562Z,96.30
2018-11-07T19:52:54.697Z,99.17
2018-11-07T19:55:24.161Z,96.65
2018-11-07T19:58:00.725Z,93.17
2018-11-07T20:00:28.877Z,96.65
2018-11-07T20:02:57.071Z,88.50
2018-11-07T20:05:25.342Z,85.50
2018-11-07T20:07:53.516Z,86.80
2018-11-07T20:10:22.252Z,82.60
2018-11-07T20:12:50.367Z,84.37
2018-11-07T20:15:19.461Z,79.90
2018-11-07T20:17:47.979Z,79.43
2018-11-07T20:20:16.269Z,79.53
2018-11-07T20:22:44.545Z,80.07
2018-11-07T20:25:14.217Z,76.77
2018-11-07T20:27:43.302Z,79.17
2018-11-07T20:30:13.149Z,78.10
2018-11-07T20:32:41.549Z,76.40
2018-11-07T20:35:12.209Z,74.40
2018-11-07T20:37:40.396Z,71.90
2018-11-07T20:40:10.585Z,72.70
2018-11-07T20:42:39.010Z,67.97
2018-11-07T20:45:07.891Z,69.23
2018-11-07T20:47:36.200Z,70.50
2018-11-07T20:50:05.011Z,69.07
2018-11-07T20:52:33.248Z,67.50
2018-11-07T20:55:01.496Z,67.03
2018-11-07T20:57:29.612Z,64.40
2018-11-07T20:59:57.900Z,68.03
2018-11-07T21:02:26.118Z,64.30
2018-11-07T21:04:54.288Z,63.10
2018-11-07T21:07:22.478Z,62.73
2018-11-07T21:09:50.671Z,61.58
2018-11-07T21:12:18.871Z,60.13
2018-11-07T21:14:47.049Z,60.20
2018-11-07T21:17:15.861Z,58.70
2018-11-07T21:19:44.047Z,57.80
2018-11-07T21:22:12.862Z,56.37
2018-11-07T21:24:40.972Z,56.40
2018-11-07T21:27:09.292Z,56.10
2018-11-07T21:29:37.436Z,54.40
2018-11-07T21:32:06.306Z,55.13
2018-11-07T21:34:34.661Z,54.77
2018-11-07T21:37:02.927Z,52.25
2018-11-07T21:39:33.230Z,54.80
2018-11-07T21:42:02.100Z,52.63
2018-11-07T21:44:30.281Z,51.53
2018-11-07T21:46:58.419Z,49.17
2018-11-07T21:49:26.643Z,51.83
2018-11-07T21:51:54.810Z,51.07
2018-11-07T21:54:24.312Z,50.58
2018-11-07T21:56:52.481Z,51.57
2018-11-07T21:59:20.673Z,49.13
2018-11-07T22:01:48.835Z,48.97
2018-11-07T22:04:17.012Z,50.30
2018-11-07T22:06:45.147Z,49.63
2018-11-07T22:09:13.338Z,49.30
2018-11-07T22:11:41.482Z,49.27
2018-11-07T22:14:09.698Z,49.20
2018-11-07T22:16:38.597Z,49.10
2018-11-07T22:19:07.372Z,44.50
2018-11-07T22:21:35.777Z,46.30
2018-11-07T22:24:04.205Z,44.88
2018-11-07T22:26:32.294Z,44.20
2018-11-07T22:29:00.472Z,44.03
2018-11-07T22:31:28.687Z,45.23
2018-11-07T22:33:56.789Z,45.20
2018-11-07T22:36:24.933Z,44.40
2018-11-07T22:38:53.083Z,42.67
2018-11-07T22:41:21.202Z,45.00
2018-11-07T22:43:49.339Z,41.10
2018-11-07T22:46:17.521Z,42.77
2018-11-07T22:48:45.654Z,42.10
2018-11-07T22:51:13.789Z,41.30
2018-11-07T22:53:41.972Z,41.33
2018-11-07T22:56:10.203Z,40.45
2018-11-07T22:58:38.329Z,42.30
2018-11-07T23:01:16.659Z,39.80
2018-11-07T23:03:45.796Z,40.17
2018-11-07T23:06:13.844Z,38.73
2018-11-07T23:08:41.981Z,38.90
2018-11-07T23:11:10.125Z,37.70
2018-11-07T23:13:38.339Z,38.30
2018-11-07T23:16:06.466Z,37.63
2018-11-07T23:18:34.643Z,35.55
2018-11-07T23:21:02.790Z,37.85
2018-11-07T23:23:30.925Z,36.13
2018-11-07T23:25:59.101Z,37.07
2018-11-07T23:28:27.224Z,35.80
2018-11-07T23:30:55.370Z,35.77
2018-11-07T23:33:24.518Z,34.77
2018-11-07T23:35:52.638Z,35.60
2018-11-07T23:38:20.830Z,36.00
2018-11-07T23:40:49.009Z,35.40
2018-11-07T23:43:17.120Z,36.27
2018-11-07T23:45:45.298Z,34.13
2018-11-07T23:48:13.451Z,34.67
2018-11-07T23:50:41.585Z,33.97
2018-11-07T23:53:09.704Z,34.53
2018-11-07T23:55:37.966Z,33.75
2018-11-07T23:58:06.081Z,32.20
